sensor_id;sensor_type;location;lat;lon;timestamp;P1;durP1;ratioP1;P2;durP2;ratioP2
19673;SDS011;9986;50.610;7.230;2023-05-07T00:02:11;2.73;;;2.33;;
19673;SDS011;9986;50.610;7.230;2023-05-07T00:04:53;2.67;;;2.43;;
19673;SDS011;9986;50.610;7.230;2023-05-07T00:07:33;2.60;;;2.40;;
19673;SDS011;9986;50.610;7.230;2023-05-07T00:10:13;6.07;;;2.50;;
19673;SDS011;9986;50.610;7.230;2023-05-07T00:12:52;3.20;;;2.90;;
19673;SDS011;9986;50.610;7.230;2023-05-07T00:15:33;3.30;;;3.00;;
19673;SDS011;9986;50.610;7.230;2023-05-07T00:18:10;3.60;;;2.97;;
19673;SDS011;9986;50.610;7.230;2023-05-07T00:20:48;4.00;;;2.77;;
19673;SDS011;9986;50.610;7.230;2023-05-07T00:23:26;3.70;;;3.40;;
19673;SDS011;9986;50.610;7.230;2023-05-07T00:26:10;5.33;;;2.80;;
19673;SDS011;9986;50.610;7.230;2023-05-07T00:28:50;4.30;;;2.80;;
19673;SDS011;9986;50.610;7.230;2023-05-07T00:31:34;3.67;;;3.03;;
19673;SDS011;9986;50.610;7.230;2023-05-07T00:34:13;4.13;;;2.67;;
19673;SDS011;9986;50.610;7.230;2023-05-07T00:36:51;3.97;;;3.20;;
19673;SDS011;9986;50.610;7.230;2023-05-07T00:39:28;6.13;;;3.97;;
19673;SDS011;9986;50.610;7.230;2023-05-07T00:42:09;4.40;;;3.53;;
19673;SDS011;9986;50.610;7.230;2023-05-07T00:44:53;4.13;;;3.67;;
19673;SDS011;9986;50.610;7.230;2023-05-07T00:47:24;4.57;;;3.50;;
19673;SDS011;9986;50.610;7.230;2023-05-07T00:50:02;4.00;;;3.70;;
19673;SDS011;9986;50.610;7.230;2023-05-07T00:52:47;8.80;;;4.83;;
19673;SDS011;9986;50.610;7.230;2023-05-07T00:58:00;4.63;;;3.83;;
19673;SDS011;9986;50.610;7.230;2023-05-07T01:00:38;5.07;;;4.20;;
19673;SDS011;9986;50.610;7.230;2023-05-07T01:03:15;4.07;;;3.67;;
19673;SDS011;9986;50.610;7.230;2023-05-07T01:06:00;6.10;;;3.80;;
19673;SDS011;9986;50.610;7.230;2023-05-07T01:11:21;4.67;;;4.17;;
19673;SDS011;9986;50.610;7.230;2023-05-07T01:16:29;4.23;;;3.83;;
19673;SDS011;9986;50.610;7.230;2023-05-07T01:19:07;4.33;;;3.60;;
19673;SDS011;9986;50.610;7.230;2023-05-07T01:24:34;4.07;;;3.77;;
19673;SDS011;9986;50.610;7.230;2023-05-07T01:27:15;6.23;;;3.87;;
19673;SDS011;9986;50.610;7.230;2023-05-07T01:32:31;5.83;;;4.17;;
19673;SDS011;9986;50.610;7.230;2023-05-07T01:35:09;6.73;;;4.57;;
19673;SDS011;9986;50.610;7.230;2023-05-07T01:40:19;4.80;;;4.27;;
19673;SDS011;9986;50.610;7.230;2023-05-07T01:42:56;4.60;;;4.17;;
19673;SDS011;9986;50.610;7.230;2023-05-07T01:45:34;6.17;;;5.10;;
19673;SDS011;9986;50.610;7.230;2023-05-07T01:50:54;4.60;;;3.97;;
19673;SDS011;9986;50.610;7.230;2023-05-07T01:53:36;6.87;;;3.60;;
19673;SDS011;9986;50.610;7.230;2023-05-07T01:58:56;4.70;;;3.73;;
19673;SDS011;9986;50.610;7.230;2023-05-07T02:01:34;4.90;;;3.70;;
19673;SDS011;9986;50.610;7.230;2023-05-07T02:04:18;4.90;;;3.50;;
19673;SDS011;9986;50.610;7.230;2023-05-07T02:09:30;5.67;;;3.40;;
19673;SDS011;9986;50.610;7.230;2023-05-07T02:14:43;4.80;;;3.33;;
19673;SDS011;9986;50.610;7.230;2023-05-07T02:17:21;4.10;;;3.70;;
19673;SDS011;9986;50.610;7.230;2023-05-07T02:20:01;4.87;;;3.07;;
19673;SDS011;9986;50.610;7.230;2023-05-07T02:22:39;4.67;;;3.57;;
19673;SDS011;9986;50.610;7.230;2023-05-07T02:25:17;4.93;;;3.67;;
19673;SDS011;9986;50.610;7.230;2023-05-07T02:27:54;5.47;;;3.77;;
19673;SDS011;9986;50.610;7.230;2023-05-07T02:30:32;4.00;;;3.40;;
19673;SDS011;9986;50.610;7.230;2023-05-07T02:33:10;5.30;;;4.10;;
19673;SDS011;9986;50.610;7.230;2023-05-07T02:35:47;5.10;;;3.67;;
19673;SDS011;9986;50.610;7.230;2023-05-07T02:38:25;3.70;;;3.40;;
19673;SDS011;9986;50.610;7.230;2023-05-07T02:41:09;6.23;;;3.40;;
19673;SDS011;9986;50.610;7.230;2023-05-07T02:43:52;5.90;;;3.70;;
19673;SDS011;9986;50.610;7.230;2023-05-07T02:46:33;4.93;;;4.53;;
19673;SDS011;9986;50.610;7.230;2023-05-07T02:51:46;3.17;;;2.83;;
19673;SDS011;9986;50.610;7.230;2023-05-07T02:54:29;6.30;;;4.00;;
19673;SDS011;9986;50.610;7.230;2023-05-07T02:57:07;4.10;;;3.23;;
19673;SDS011;9986;50.610;7.230;2023-05-07T02:59:46;3.90;;;3.53;;
19673;SDS011;9986;50.610;7.230;2023-05-07T03:02:24;7.33;;;3.53;;
19673;SDS011;9986;50.610;7.230;2023-05-07T03:05:02;6.70;;;3.40;;
19673;SDS011;9986;50.610;7.230;2023-05-07T03:07:40;5.93;;;3.50;;
19673;SDS011;9986;50.610;7.230;2023-05-07T03:10:21;4.97;;;3.43;;
19673;SDS011;9986;50.610;7.230;2023-05-07T03:12:58;3.60;;;3.30;;
19673;SDS011;9986;50.610;7.230;2023-05-07T03:15:36;3.63;;;3.30;;
19673;SDS011;9986;50.610;7.230;2023-05-07T03:18:14;4.40;;;3.40;;
19673;SDS011;9986;50.610;7.230;2023-05-07T03:20:51;6.90;;;3.67;;
19673;SDS011;9986;50.610;7.230;2023-05-07T03:23:35;7.03;;;3.80;;
19673;SDS011;9986;50.610;7.230;2023-05-07T03:26:20;5.80;;;3.80;;
19673;SDS011;9986;50.610;7.230;2023-05-07T03:29:04;9.47;;;3.57;;
19673;SDS011;9986;50.610;7.230;2023-05-07T03:31:47;6.63;;;4.37;;
19673;SDS011;9986;50.610;7.230;2023-05-07T03:34:31;6.20;;;3.90;;
19673;SDS011;9986;50.610;7.230;2023-05-07T03:39:51;4.23;;;3.83;;
19673;SDS011;9986;50.610;7.230;2023-05-07T03:45:05;7.10;;;3.37;;
19673;SDS011;9986;50.610;7.230;2023-05-07T03:47:49;5.40;;;3.70;;
19673;SDS011;9986;50.610;7.230;2023-05-07T03:50:27;5.23;;;3.50;;
19673;SDS011;9986;50.610;7.230;2023-05-07T03:53:07;3.97;;;3.67;;
19673;SDS011;9986;50.610;7.230;2023-05-07T03:58:20;4.63;;;3.97;;
19673;SDS011;9986;50.610;7.230;2023-05-07T04:03:27;4.83;;;3.80;;
19673;SDS011;9986;50.610;7.230;2023-05-07T04:06:11;5.70;;;4.20;;
19673;SDS011;9986;50.610;7.230;2023-05-07T04:11:24;5.17;;;4.30;;
19673;SDS011;9986;50.610;7.230;2023-05-07T04:14:02;4.70;;;3.90;;
19673;SDS011;9986;50.610;7.230;2023-05-07T04:16:34;4.70;;;4.17;;
19673;SDS011;9986;50.610;7.230;2023-05-07T04:19:11;5.93;;;4.20;;
19673;SDS011;9986;50.610;7.230;2023-05-07T04:21:49;7.37;;;3.70;;
19673;SDS011;9986;50.610;7.230;2023-05-07T04:24:27;4.27;;;3.60;;
19673;SDS011;9986;50.610;7.230;2023-05-07T04:27:04;6.20;;;4.10;;
19673;SDS011;9986;50.610;7.230;2023-05-07T04:29:42;4.30;;;3.90;;
19673;SDS011;9986;50.610;7.230;2023-05-07T04:34:59;4.63;;;3.80;;
19673;SDS011;9986;50.610;7.230;2023-05-07T04:37:42;3.97;;;3.67;;
19673;SDS011;9986;50.610;7.230;2023-05-07T04:40:20;7.10;;;3.77;;
19673;SDS011;9986;50.610;7.230;2023-05-07T04:42:58;3.50;;;3.20;;
19673;SDS011;9986;50.610;7.230;2023-05-07T04:45:36;6.03;;;4.13;;
19673;SDS011;9986;50.610;7.230;2023-05-07T04:48:20;5.00;;;4.27;;
19673;SDS011;9986;50.610;7.230;2023-05-07T04:50:58;5.83;;;4.53;;
19673;SDS011;9986;50.610;7.230;2023-05-07T04:56:11;4.93;;;4.37;;
19673;SDS011;9986;50.610;7.230;2023-05-07T04:58:56;5.07;;;4.00;;
19673;SDS011;9986;50.610;7.230;2023-05-07T05:01:39;5.00;;;4.37;;
19673;SDS011;9986;50.610;7.230;2023-05-07T05:04:17;5.53;;;4.03;;
19673;SDS011;9986;50.610;7.230;2023-05-07T05:12:19;4.50;;;4.00;;
19673;SDS011;9986;50.610;7.230;2023-05-07T05:22:56;5.60;;;4.97;;
19673;SDS011;9986;50.610;7.230;2023-05-07T05:28:09;5.47;;;4.63;;
19673;SDS011;9986;50.610;7.230;2023-05-07T05:30:47;6.37;;;4.00;;
19673;SDS011;9986;50.610;7.230;2023-05-07T05:33:28;6.53;;;4.33;;
19673;SDS011;9986;50.610;7.230;2023-05-07T05:36:07;4.10;;;3.70;;
19673;SDS011;9986;50.610;7.230;2023-05-07T05:38:46;5.57;;;4.10;;
19673;SDS011;9986;50.610;7.230;2023-05-07T05:41:23;5.77;;;4.20;;
19673;SDS011;9986;50.610;7.230;2023-05-07T05:44:04;5.83;;;4.10;;
19673;SDS011;9986;50.610;7.230;2023-05-07T05:46:47;4.73;;;4.33;;
19673;SDS011;9986;50.610;7.230;2023-05-07T05:49:27;6.37;;;4.10;;
19673;SDS011;9986;50.610;7.230;2023-05-07T05:54:40;5.20;;;4.70;;
19673;SDS011;9986;50.610;7.230;2023-05-07T05:57:21;7.07;;;4.17;;
19673;SDS011;9986;50.610;7.230;2023-05-07T06:02:35;5.67;;;3.80;;
19673;SDS011;9986;50.610;7.230;2023-05-07T06:05:19;4.20;;;3.80;;
19673;SDS011;9986;50.610;7.230;2023-05-07T06:07:56;5.33;;;4.00;;
19673;SDS011;9986;50.610;7.230;2023-05-07T06:13:09;10.33;;;6.20;;
19673;SDS011;9986;50.610;7.230;2023-05-07T06:15:53;4.20;;;3.80;;
19673;SDS011;9986;50.610;7.230;2023-05-07T06:18:31;5.43;;;3.73;;
19673;SDS011;9986;50.610;7.230;2023-05-07T06:21:09;8.00;;;3.73;;
19673;SDS011;9986;50.610;7.230;2023-05-07T06:23:47;4.57;;;4.17;;
19673;SDS011;9986;50.610;7.230;2023-05-07T06:26:24;7.43;;;3.90;;
19673;SDS011;9986;50.610;7.230;2023-05-07T06:29:02;4.00;;;3.70;;
19673;SDS011;9986;50.610;7.230;2023-05-07T06:34:09;4.43;;;4.03;;
19673;SDS011;9986;50.610;7.230;2023-05-07T06:36:47;4.67;;;4.17;;
19673;SDS011;9986;50.610;7.230;2023-05-07T06:39:25;6.97;;;4.07;;
19673;SDS011;9986;50.610;7.230;2023-05-07T06:42:05;4.77;;;3.40;;
19673;SDS011;9986;50.610;7.230;2023-05-07T06:44:43;4.17;;;3.27;;
19673;SDS011;9986;50.610;7.230;2023-05-07T06:47:20;4.00;;;3.40;;
19673;SDS011;9986;50.610;7.230;2023-05-07T06:52:36;5.40;;;3.67;;
19673;SDS011;9986;50.610;7.230;2023-05-07T06:55:16;5.13;;;4.03;;
19673;SDS011;9986;50.610;7.230;2023-05-07T06:58:01;5.17;;;3.53;;
19673;SDS011;9986;50.610;7.230;2023-05-07T07:03:27;5.03;;;3.90;;
19673;SDS011;9986;50.610;7.230;2023-05-07T07:06:05;4.73;;;3.33;;
19673;SDS011;9986;50.610;7.230;2023-05-07T07:08:49;7.93;;;5.10;;
19673;SDS011;9986;50.610;7.230;2023-05-07T07:11:32;5.40;;;3.60;;
19673;SDS011;9986;50.610;7.230;2023-05-07T07:16:58;5.03;;;4.00;;
19673;SDS011;9986;50.610;7.230;2023-05-07T07:22:12;4.70;;;4.20;;
19673;SDS011;9986;50.610;7.230;2023-05-07T07:24:49;11.27;;;4.23;;
19673;SDS011;9986;50.610;7.230;2023-05-07T07:30:03;8.87;;;4.30;;
19673;SDS011;9986;50.610;7.230;2023-05-07T07:32:44;7.40;;;3.90;;
19673;SDS011;9986;50.610;7.230;2023-05-07T07:37:59;5.20;;;3.60;;
19673;SDS011;9986;50.610;7.230;2023-05-07T07:40:43;7.40;;;4.73;;
19673;SDS011;9986;50.610;7.230;2023-05-07T07:43:27;5.57;;;3.50;;
19673;SDS011;9986;50.610;7.230;2023-05-07T07:46:07;4.97;;;3.50;;
19673;SDS011;9986;50.610;7.230;2023-05-07T07:48:51;4.77;;;3.67;;
19673;SDS011;9986;50.610;7.230;2023-05-07T07:51:29;4.70;;;3.23;;
19673;SDS011;9986;50.610;7.230;2023-05-07T07:56:41;3.97;;;3.00;;
19673;SDS011;9986;50.610;7.230;2023-05-07T07:59:19;4.73;;;3.33;;
19673;SDS011;9986;50.610;7.230;2023-05-07T08:01:57;6.50;;;2.93;;
19673;SDS011;9986;50.610;7.230;2023-05-07T08:07:10;4.80;;;3.07;;
19673;SDS011;9986;50.610;7.230;2023-05-07T08:12:23;6.77;;;3.50;;
19673;SDS011;9986;50.610;7.230;2023-05-07T08:15:05;4.00;;;2.80;;
19673;SDS011;9986;50.610;7.230;2023-05-07T08:17:43;6.83;;;3.47;;
19673;SDS011;9986;50.610;7.230;2023-05-07T08:20:21;5.00;;;3.20;;
19673;SDS011;9986;50.610;7.230;2023-05-07T08:22:59;3.97;;;3.30;;
19673;SDS011;9986;50.610;7.230;2023-05-07T08:25:36;3.87;;;2.93;;
19673;SDS011;9986;50.610;7.230;2023-05-07T08:28:14;3.27;;;2.67;;
19673;SDS011;9986;50.610;7.230;2023-05-07T08:30:52;7.43;;;2.87;;
19673;SDS011;9986;50.610;7.230;2023-05-07T08:33:32;4.73;;;2.70;;
19673;SDS011;9986;50.610;7.230;2023-05-07T08:36:10;5.87;;;3.00;;
19673;SDS011;9986;50.610;7.230;2023-05-07T08:38:51;5.07;;;2.90;;
19673;SDS011;9986;50.610;7.230;2023-05-07T08:41:29;3.90;;;2.70;;
19673;SDS011;9986;50.610;7.230;2023-05-07T08:46:42;3.47;;;2.67;;
19673;SDS011;9986;50.610;7.230;2023-05-07T08:51:57;2.80;;;2.50;;
19673;SDS011;9986;50.610;7.230;2023-05-07T08:57:11;2.63;;;2.30;;
19673;SDS011;9986;50.610;7.230;2023-05-07T08:59:49;4.50;;;2.50;;
19673;SDS011;9986;50.610;7.230;2023-05-07T09:02:26;2.97;;;2.33;;
19673;SDS011;9986;50.610;7.230;2023-05-07T09:07:39;9.00;;;4.90;;
19673;SDS011;9986;50.610;7.230;2023-05-07T09:12:52;2.70;;;2.30;;
19673;SDS011;9986;50.610;7.230;2023-05-07T09:18:06;2.13;;;1.93;;
19673;SDS011;9986;50.610;7.230;2023-05-07T09:20:43;5.23;;;2.00;;
19673;SDS011;9986;50.610;7.230;2023-05-07T09:26:00;2.77;;;2.33;;
19673;SDS011;9986;50.610;7.230;2023-05-07T09:31:14;2.07;;;1.93;;
19673;SDS011;9986;50.610;7.230;2023-05-07T09:33:53;3.63;;;2.10;;
19673;SDS011;9986;50.610;7.230;2023-05-07T09:36:32;7.20;;;2.13;;
19673;SDS011;9986;50.610;7.230;2023-05-07T09:39:09;8.40;;;2.43;;
19673;SDS011;9986;50.610;7.230;2023-05-07T09:47:00;4.70;;;2.27;;
19673;SDS011;9986;50.610;7.230;2023-05-07T09:52:09;5.23;;;1.73;;
19673;SDS011;9986;50.610;7.230;2023-05-07T09:54:47;11.73;;;2.00;;
19673;SDS011;9986;50.610;7.230;2023-05-07T09:57:26;2.83;;;2.20;;
19673;SDS011;9986;50.610;7.230;2023-05-07T10:00:06;6.87;;;2.20;;
19673;SDS011;9986;50.610;7.230;2023-05-07T10:02:44;4.13;;;2.60;;
19673;SDS011;9986;50.610;7.230;2023-05-07T10:05:29;3.10;;;2.13;;
19673;SDS011;9986;50.610;7.230;2023-05-07T10:08:13;3.70;;;1.87;;
19673;SDS011;9986;50.610;7.230;2023-05-07T10:10:51;6.77;;;2.10;;
19673;SDS011;9986;50.610;7.230;2023-05-07T10:13:28;4.40;;;1.90;;
19673;SDS011;9986;50.610;7.230;2023-05-07T10:16:07;5.60;;;2.13;;
19673;SDS011;9986;50.610;7.230;2023-05-07T10:18:48;2.57;;;1.90;;
19673;SDS011;9986;50.610;7.230;2023-05-07T10:21:27;1.90;;;1.80;;
19673;SDS011;9986;50.610;7.230;2023-05-07T10:24:05;3.00;;;1.87;;
19673;SDS011;9986;50.610;7.230;2023-05-07T10:26:45;2.67;;;1.80;;
19673;SDS011;9986;50.610;7.230;2023-05-07T10:34:40;3.93;;;2.30;;
19673;SDS011;9986;50.610;7.230;2023-05-07T10:37:18;4.63;;;1.90;;
19673;SDS011;9986;50.610;7.230;2023-05-07T10:40:03;3.07;;;1.83;;
19673;SDS011;9986;50.610;7.230;2023-05-07T10:42:53;2.60;;;2.20;;
19673;SDS011;9986;50.610;7.230;2023-05-07T10:45:38;2.90;;;1.77;;
19673;SDS011;9986;50.610;7.230;2023-05-07T10:48:16;3.40;;;1.90;;
19673;SDS011;9986;50.610;7.230;2023-05-07T10:50:54;3.20;;;1.53;;
19673;SDS011;9986;50.610;7.230;2023-05-07T10:56:27;5.17;;;1.80;;
19673;SDS011;9986;50.610;7.230;2023-05-07T11:04:44;8.20;;;1.80;;
19673;SDS011;9986;50.610;7.230;2023-05-07T11:07:26;1.80;;;1.70;;
19673;SDS011;9986;50.610;7.230;2023-05-07T11:10:08;3.63;;;1.50;;
19673;SDS011;9986;50.610;7.230;2023-05-07T11:12:49;1.50;;;1.37;;
19673;SDS011;9986;50.610;7.230;2023-05-07T11:15:34;2.12;;;1.82;;
19673;SDS011;9986;50.610;7.230;2023-05-07T11:18:19;2.45;;;1.57;;
19673;SDS011;9986;50.610;7.230;2023-05-07T11:29:27;4.12;;;1.50;;
19673;SDS011;9986;50.610;7.230;2023-05-07T11:32:05;1.27;;;0.97;;
19673;SDS011;9986;50.610;7.230;2023-05-07T11:34:43;1.55;;;1.20;;
19673;SDS011;9986;50.610;7.230;2023-05-07T11:40:03;3.72;;;1.92;;
19673;SDS011;9986;50.610;7.230;2023-05-07T11:42:41;6.97;;;1.37;;
19673;SDS011;9986;50.610;7.230;2023-05-07T11:45:12;1.35;;;1.25;;
19673;SDS011;9986;50.610;7.230;2023-05-07T11:47:54;3.40;;;1.12;;
19673;SDS011;9986;50.610;7.230;2023-05-07T11:50:32;1.15;;;1.10;;
19673;SDS011;9986;50.610;7.230;2023-05-07T11:53:09;5.03;;;1.22;;
19673;SDS011;9986;50.610;7.230;2023-05-07T11:58:22;1.57;;;1.20;;
19673;SDS011;9986;50.610;7.230;2023-05-07T12:00:57;6.67;;;1.15;;
19673;SDS011;9986;50.610;7.230;2023-05-07T12:03:37;1.90;;;1.02;;
19673;SDS011;9986;50.610;7.230;2023-05-07T12:06:16;1.77;;;1.67;;
19673;SDS011;9986;50.610;7.230;2023-05-07T12:11:30;1.87;;;1.17;;
19673;SDS011;9986;50.610;7.230;2023-05-07T12:14:10;1.30;;;1.20;;
19673;SDS011;9986;50.610;7.230;2023-05-07T12:19:30;4.33;;;1.52;;
19673;SDS011;9986;50.610;7.230;2023-05-07T12:22:08;1.67;;;1.10;;
19673;SDS011;9986;50.610;7.230;2023-05-07T12:24:49;2.20;;;1.40;;
19673;SDS011;9986;50.610;7.230;2023-05-07T12:27:40;1.20;;;1.10;;
19673;SDS011;9986;50.610;7.230;2023-05-07T12:30:17;5.65;;;1.35;;
19673;SDS011;9986;50.610;7.230;2023-05-07T12:35:31;2.42;;;1.57;;
19673;SDS011;9986;50.610;7.230;2023-05-07T12:38:09;1.22;;;1.12;;
19673;SDS011;9986;50.610;7.230;2023-05-07T12:40:54;1.30;;;1.10;;
19673;SDS011;9986;50.610;7.230;2023-05-07T12:43:32;0.95;;;0.85;;
19673;SDS011;9986;50.610;7.230;2023-05-07T12:46:09;3.87;;;1.00;;
19673;SDS011;9986;50.610;7.230;2023-05-07T12:51:20;2.25;;;0.95;;
19673;SDS011;9986;50.610;7.230;2023-05-07T12:53:57;2.77;;;1.02;;
19673;SDS011;9986;50.610;7.230;2023-05-07T12:59:18;1.10;;;1.00;;
19673;SDS011;9986;50.610;7.230;2023-05-07T13:01:56;1.75;;;1.30;;
19673;SDS011;9986;50.610;7.230;2023-05-07T13:04:33;2.25;;;0.98;;
19673;SDS011;9986;50.610;7.230;2023-05-07T13:07:11;1.77;;;1.30;;
19673;SDS011;9986;50.610;7.230;2023-05-07T13:09:49;1.70;;;1.30;;
19673;SDS011;9986;50.610;7.230;2023-05-07T13:12:26;1.67;;;1.30;;
19673;SDS011;9986;50.610;7.230;2023-05-07T13:17:39;2.98;;;1.32;;
19673;SDS011;9986;50.610;7.230;2023-05-07T13:22:53;1.40;;;1.30;;
19673;SDS011;9986;50.610;7.230;2023-05-07T13:25:30;4.00;;;1.10;;
19673;SDS011;9986;50.610;7.230;2023-05-07T13:30:50;4.60;;;1.10;;
19673;SDS011;9986;50.610;7.230;2023-05-07T13:33:34;1.27;;;1.22;;
19673;SDS011;9986;50.610;7.230;2023-05-07T13:38:47;2.90;;;1.42;;
19673;SDS011;9986;50.610;7.230;2023-05-07T13:41:25;1.60;;;1.30;;
19673;SDS011;9986;50.610;7.230;2023-05-07T13:44:02;3.45;;;1.37;;
19673;SDS011;9986;50.610;7.230;2023-05-07T13:49:11;2.25;;;1.67;;
19673;SDS011;9986;50.610;7.230;2023-05-07T13:51:55;1.62;;;1.50;;
19673;SDS011;9986;50.610;7.230;2023-05-07T13:54:33;1.85;;;1.10;;
19673;SDS011;9986;50.610;7.230;2023-05-07T13:57:10;2.85;;;1.45;;
19673;SDS011;9986;50.610;7.230;2023-05-07T13:59:48;3.10;;;1.52;;
19673;SDS011;9986;50.610;7.230;2023-05-07T14:05:01;2.85;;;1.62;;
19673;SDS011;9986;50.610;7.230;2023-05-07T14:07:45;2.15;;;1.32;;
19673;SDS011;9986;50.610;7.230;2023-05-07T14:10:23;4.97;;;1.98;;
19673;SDS011;9986;50.610;7.230;2023-05-07T14:15:30;2.02;;;1.20;;
19673;SDS011;9986;50.610;7.230;2023-05-07T14:18:08;2.67;;;1.55;;
19673;SDS011;9986;50.610;7.230;2023-05-07T14:20:45;11.63;;;2.72;;
19673;SDS011;9986;50.610;7.230;2023-05-07T14:23:30;1.90;;;1.62;;
19673;SDS011;9986;50.610;7.230;2023-05-07T14:26:14;2.12;;;1.52;;
19673;SDS011;9986;50.610;7.230;2023-05-07T14:28:57;2.37;;;1.70;;
19673;SDS011;9986;50.610;7.230;2023-05-07T14:31:35;2.20;;;1.60;;
19673;SDS011;9986;50.610;7.230;2023-05-07T14:34:13;2.77;;;1.30;;
19673;SDS011;9986;50.610;7.230;2023-05-07T14:36:54;3.67;;;1.40;;
19673;SDS011;9986;50.610;7.230;2023-05-07T14:42:01;2.10;;;1.53;;
19673;SDS011;9986;50.610;7.230;2023-05-07T14:44:38;3.50;;;1.90;;
19673;SDS011;9986;50.610;7.230;2023-05-07T14:47:09;2.30;;;1.90;;
19673;SDS011;9986;50.610;7.230;2023-05-07T14:49:53;2.23;;;1.47;;
19673;SDS011;9986;50.610;7.230;2023-05-07T14:52:32;3.43;;;1.40;;
19673;SDS011;9986;50.610;7.230;2023-05-07T14:55:09;1.47;;;1.30;;
19673;SDS011;9986;50.610;7.230;2023-05-07T15:00:29;1.97;;;1.47;;
19673;SDS011;9986;50.610;7.230;2023-05-07T15:05:44;4.07;;;1.93;;
19673;SDS011;9986;50.610;7.230;2023-05-07T15:08:21;3.93;;;2.40;;
19673;SDS011;9986;50.610;7.230;2023-05-07T15:10:59;6.50;;;3.97;;
19673;SDS011;9986;50.610;7.230;2023-05-07T15:13:37;7.87;;;4.80;;
19673;SDS011;9986;50.610;7.230;2023-05-07T15:18:44;10.27;;;3.63;;
19673;SDS011;9986;50.610;7.230;2023-05-07T15:21:23;8.27;;;3.90;;
19673;SDS011;9986;50.610;7.230;2023-05-07T15:24:01;3.13;;;1.70;;
19673;SDS011;9986;50.610;7.230;2023-05-07T15:29:19;5.53;;;1.70;;
19673;SDS011;9986;50.610;7.230;2023-05-07T15:34:33;4.03;;;1.40;;
19673;SDS011;9986;50.610;7.230;2023-05-07T15:37:10;4.20;;;1.57;;
19673;SDS011;9986;50.610;7.230;2023-05-07T15:39:50;10.83;;;1.87;;
19673;SDS011;9986;50.610;7.230;2023-05-07T15:42:30;3.20;;;1.77;;
19673;SDS011;9986;50.610;7.230;2023-05-07T15:45:09;2.97;;;1.60;;
19673;SDS011;9986;50.610;7.230;2023-05-07T15:47:47;4.73;;;2.27;;
19673;SDS011;9986;50.610;7.230;2023-05-07T15:53:00;8.23;;;2.83;;
19673;SDS011;9986;50.610;7.230;2023-05-07T15:55:42;6.47;;;2.37;;
19673;SDS011;9986;50.610;7.230;2023-05-07T16:00:54;9.40;;;2.47;;
19673;SDS011;9986;50.610;7.230;2023-05-07T16:03:38;8.00;;;2.17;;
19673;SDS011;9986;50.610;7.230;2023-05-07T16:08:51;6.53;;;2.50;;
19673;SDS011;9986;50.610;7.230;2023-05-07T16:11:29;2.80;;;1.87;;
19673;SDS011;9986;50.610;7.230;2023-05-07T16:16:43;3.93;;;2.10;;
19673;SDS011;9986;50.610;7.230;2023-05-07T16:19:20;4.97;;;2.20;;
19673;SDS011;9986;50.610;7.230;2023-05-07T16:21:58;4.37;;;2.30;;
19673;SDS011;9986;50.610;7.230;2023-05-07T16:24:42;6.80;;;2.40;;
19673;SDS011;9986;50.610;7.230;2023-05-07T16:27:19;6.97;;;2.90;;
19673;SDS011;9986;50.610;7.230;2023-05-07T16:30:00;8.30;;;3.60;;
19673;SDS011;9986;50.610;7.230;2023-05-07T16:32:38;7.97;;;4.00;;
19673;SDS011;9986;50.610;7.230;2023-05-07T16:40:33;5.70;;;3.00;;
19673;SDS011;9986;50.610;7.230;2023-05-07T16:45:49;3.63;;;3.00;;
19673;SDS011;9986;50.610;7.230;2023-05-07T16:51:09;4.70;;;3.27;;
19673;SDS011;9986;50.610;7.230;2023-05-07T16:53:47;6.83;;;3.67;;
19673;SDS011;9986;50.610;7.230;2023-05-07T16:56:27;5.40;;;3.50;;
19673;SDS011;9986;50.610;7.230;2023-05-07T16:59:08;6.50;;;3.60;;
19673;SDS011;9986;50.610;7.230;2023-05-07T17:01:46;6.20;;;3.77;;
19673;SDS011;9986;50.610;7.230;2023-05-07T17:04:23;5.77;;;3.77;;
19673;SDS011;9986;50.610;7.230;2023-05-07T17:07:01;5.43;;;3.30;;
19673;SDS011;9986;50.610;7.230;2023-05-07T17:12:12;5.77;;;3.33;;
19673;SDS011;9986;50.610;7.230;2023-05-07T17:14:55;7.07;;;3.87;;
19673;SDS011;9986;50.610;7.230;2023-05-07T17:17:36;6.37;;;4.20;;
19673;SDS011;9986;50.610;7.230;2023-05-07T17:25:34;7.17;;;3.27;;
19673;SDS011;9986;50.610;7.230;2023-05-07T17:28:15;7.07;;;3.50;;
19673;SDS011;9986;50.610;7.230;2023-05-07T17:30:53;7.13;;;3.63;;
19673;SDS011;9986;50.610;7.230;2023-05-07T17:33:33;7.43;;;3.20;;
19673;SDS011;9986;50.610;7.230;2023-05-07T17:36:11;8.73;;;3.23;;
19673;SDS011;9986;50.610;7.230;2023-05-07T17:38:48;4.80;;;2.97;;
19673;SDS011;9986;50.610;7.230;2023-05-07T17:41:26;9.03;;;3.90;;
19673;SDS011;9986;50.610;7.230;2023-05-07T17:44:04;6.80;;;3.67;;
19673;SDS011;9986;50.610;7.230;2023-05-07T17:46:48;4.67;;;3.60;;
19673;SDS011;9986;50.610;7.230;2023-05-07T17:49:28;9.27;;;4.20;;
19673;SDS011;9986;50.610;7.230;2023-05-07T17:52:12;8.97;;;4.53;;
19673;SDS011;9986;50.610;7.230;2023-05-07T17:54:50;6.57;;;3.93;;
19673;SDS011;9986;50.610;7.230;2023-05-07T17:57:27;10.03;;;4.10;;
19673;SDS011;9986;50.610;7.230;2023-05-07T18:02:48;7.10;;;3.83;;
19673;SDS011;9986;50.610;7.230;2023-05-07T18:05:27;10.97;;;4.17;;
19673;SDS011;9986;50.610;7.230;2023-05-07T18:08:11;7.60;;;4.13;;
19673;SDS011;9986;50.610;7.230;2023-05-07T18:10:49;7.70;;;4.00;;
19673;SDS011;9986;50.610;7.230;2023-05-07T18:16:15;11.23;;;4.30;;
19673;SDS011;9986;50.610;7.230;2023-05-07T18:18:53;7.23;;;4.40;;
19673;SDS011;9986;50.610;7.230;2023-05-07T18:21:30;5.17;;;3.23;;
19673;SDS011;9986;50.610;7.230;2023-05-07T18:24:08;4.53;;;3.83;;
19673;SDS011;9986;50.610;7.230;2023-05-07T18:26:46;4.17;;;3.60;;
19673;SDS011;9986;50.610;7.230;2023-05-07T18:29:31;11.43;;;4.40;;
19673;SDS011;9986;50.610;7.230;2023-05-07T18:34:45;9.30;;;5.90;;
19673;SDS011;9986;50.610;7.230;2023-05-07T18:37:23;5.57;;;4.13;;
19673;SDS011;9986;50.610;7.230;2023-05-07T18:42:38;4.77;;;3.70;;
19673;SDS011;9986;50.610;7.230;2023-05-07T18:45:16;6.30;;;4.17;;
19673;SDS011;9986;50.610;7.230;2023-05-07T18:50:25;5.27;;;4.10;;
19673;SDS011;9986;50.610;7.230;2023-05-07T18:53:03;5.40;;;3.87;;
19673;SDS011;9986;50.610;7.230;2023-05-07T18:55:40;10.83;;;3.97;;
19673;SDS011;9986;50.610;7.230;2023-05-07T19:00:49;6.23;;;4.13;;
19673;SDS011;9986;50.610;7.230;2023-05-07T19:03:33;10.77;;;4.90;;
19673;SDS011;9986;50.610;7.230;2023-05-07T19:06:11;8.07;;;4.10;;
19673;SDS011;9986;50.610;7.230;2023-05-07T19:08:49;9.63;;;4.50;;
19673;SDS011;9986;50.610;7.230;2023-05-07T19:11:30;5.33;;;3.90;;
19673;SDS011;9986;50.610;7.230;2023-05-07T19:16:37;5.77;;;3.40;;
19673;SDS011;9986;50.610;7.230;2023-05-07T19:19:14;4.23;;;3.33;;
19673;SDS011;9986;50.610;7.230;2023-05-07T19:21:59;7.37;;;3.90;;
19673;SDS011;9986;50.610;7.230;2023-05-07T19:24:37;4.23;;;3.50;;
19673;SDS011;9986;50.610;7.230;2023-05-07T19:27:21;7.33;;;3.77;;
19673;SDS011;9986;50.610;7.230;2023-05-07T19:32:34;4.43;;;3.07;;
19673;SDS011;9986;50.610;7.230;2023-05-07T19:35:18;5.00;;;3.83;;
19673;SDS011;9986;50.610;7.230;2023-05-07T19:37:56;7.57;;;4.40;;
19673;SDS011;9986;50.610;7.230;2023-05-07T19:40:36;6.23;;;4.30;;
19673;SDS011;9986;50.610;7.230;2023-05-07T19:43:20;6.30;;;5.13;;
19673;SDS011;9986;50.610;7.230;2023-05-07T19:46:04;8.27;;;4.90;;
19673;SDS011;9986;50.610;7.230;2023-05-07T19:48:42;5.07;;;4.53;;
19673;SDS011;9986;50.610;7.230;2023-05-07T19:53:51;4.97;;;4.47;;
19673;SDS011;9986;50.610;7.230;2023-05-07T19:56:29;11.43;;;4.87;;
19673;SDS011;9986;50.610;7.230;2023-05-07T19:59:07;5.63;;;4.07;;
19673;SDS011;9986;50.610;7.230;2023-05-07T20:01:44;6.30;;;5.10;;
19673;SDS011;9986;50.610;7.230;2023-05-07T20:09:39;7.27;;;3.97;;
19673;SDS011;9986;50.610;7.230;2023-05-07T20:14:53;4.30;;;3.00;;
19673;SDS011;9986;50.610;7.230;2023-05-07T20:17:37;3.73;;;3.10;;
19673;SDS011;9986;50.610;7.230;2023-05-07T20:20:15;5.87;;;3.27;;
19673;SDS011;9986;50.610;7.230;2023-05-07T20:25:28;3.77;;;2.80;;
19673;SDS011;9986;50.610;7.230;2023-05-07T20:30:40;6.93;;;3.00;;
19673;SDS011;9986;50.610;7.230;2023-05-07T20:33:18;3.13;;;2.83;;
19673;SDS011;9986;50.610;7.230;2023-05-07T20:36:02;7.30;;;3.80;;
19673;SDS011;9986;50.610;7.230;2023-05-07T20:38:47;4.73;;;3.20;;